createdAt,value
2018-12-23T00:01:56.735Z,4.57
2018-12-23T00:04:29.070Z,4.97
2018-12-23T00:07:01.391Z,4.73
2018-12-23T00:09:34.043Z,6.37
2018-12-23T00:12:06.371Z,5.10
2018-12-23T00:14:38.704Z,5.63
2018-12-23T00:17:11.019Z,5.87
2018-12-23T00:19:43.382Z,5.77
2018-12-23T00:22:15.707Z,6.93
2018-12-23T00:24:48.038Z,7.40
2018-12-23T00:27:20.367Z,7.60
2018-12-23T00:29:52.711Z,8.17
2018-12-23T00:32:25.026Z,8.20
2018-12-23T00:34:57.351Z,7.77
2018-12-23T00:37:29.670Z,7.90
2018-12-23T00:40:02.038Z,7.47
2018-12-23T00:42:34.347Z,6.77
2018-12-23T00:45:06.882Z,6.37
2018-12-23T00:47:39.237Z,6.47
2018-12-23T00:50:11.586Z,6.43
2018-12-23T00:52:43.914Z,6.80
2018-12-23T00:55:16.265Z,6.60
2018-12-23T00:57:48.579Z,6.57
2018-12-23T01:00:20.926Z,6.70
2018-12-23T01:02:53.241Z,7.47
2018-12-23T01:05:28.881Z,6.07
2018-12-23T01:07:59.868Z,7.37
2018-12-23T01:10:32.199Z,6.47
2018-12-23T01:13:04.537Z,6.93
2018-12-23T01:15:36.879Z,7.27
2018-12-23T01:18:09.234Z,6.33
2018-12-23T01:20:41.562Z,6.43
2018-12-23T01:23:14.282Z,6.70
2018-12-23T01:25:46.621Z,7.03
2018-12-23T01:28:18.944Z,6.13
2018-12-23T01:30:51.264Z,6.73
2018-12-23T01:33:23.583Z,6.60
2018-12-23T01:35:55.916Z,7.20
2018-12-23T01:38:28.277Z,6.37
2018-12-23T01:41:00.883Z,8.00
2018-12-23T01:43:33.286Z,5.90
2018-12-23T01:46:05.647Z,7.60
2018-12-23T01:48:38.383Z,6.97
2018-12-23T01:51:10.688Z,6.80
2018-12-23T01:53:42.998Z,7.10
2018-12-23T01:56:15.324Z,8.40
2018-12-23T01:58:47.638Z,8.47
2018-12-23T02:01:19.958Z,7.60
2018-12-23T02:04:34.832Z,8.33
2018-12-23T02:07:18.084Z,8.13
2018-12-23T02:10:10.291Z,8.20
2018-12-23T02:13:02.454Z,8.80
2018-12-23T02:15:54.895Z,8.47
2018-12-23T02:18:40.075Z,9.00
2018-12-23T02:21:25.112Z,8.30
2018-12-23T02:24:09.880Z,8.33
2018-12-23T02:26:54.920Z,9.33
2018-12-23T02:29:39.704Z,9.23
2018-12-23T02:32:24.256Z,8.70
2018-12-23T02:35:09.239Z,9.33
2018-12-23T02:37:53.931Z,9.70
2018-12-23T02:40:39.033Z,8.67
2018-12-23T02:43:23.959Z,8.60
2018-12-23T02:46:09.292Z,9.10
2018-12-23T02:48:54.283Z,8.40
2018-12-23T02:51:38.900Z,9.20
2018-12-23T02:54:23.643Z,9.33
2018-12-23T02:57:08.492Z,8.90
2018-12-23T02:59:53.008Z,8.63
2018-12-23T03:02:37.822Z,8.10
2018-12-23T03:05:22.789Z,7.73
2018-12-23T03:08:07.416Z,9.10
2018-12-23T03:10:52.139Z,9.20
2018-12-23T03:13:37.646Z,8.37
2018-12-23T03:16:22.293Z,9.40
2018-12-23T03:19:07.757Z,10.10
2018-12-23T03:21:52.306Z,10.17
2018-12-23T03:24:37.366Z,10.23
2018-12-23T03:27:22.540Z,9.00
2018-12-23T03:30:07.475Z,10.77
2018-12-23T03:32:52.413Z,9.47
2018-12-23T03:35:37.372Z,9.10
2018-12-23T03:38:21.876Z,9.00
2018-12-23T03:41:06.528Z,10.13
2018-12-23T03:43:51.294Z,9.40
2018-12-23T03:46:35.873Z,10.27
2018-12-23T03:49:21.237Z,9.37
2018-12-23T03:51:54.240Z,9.27
2018-12-23T03:54:46.431Z,9.67
2018-12-23T03:57:38.621Z,10.07
2018-12-23T04:00:30.789Z,9.70
2018-12-23T04:03:23.001Z,8.93
2018-12-23T04:06:24.251Z,9.40
2018-12-23T04:09:09.091Z,9.70
2018-12-23T04:12:01.547Z,9.83
2018-12-23T04:14:53.747Z,9.63
2018-12-23T04:17:45.966Z,9.10
2018-12-23T04:20:30.753Z,9.83
2018-12-23T04:23:15.728Z,9.03
2018-12-23T04:26:00.345Z,8.87
2018-12-23T04:28:45.459Z,10.77
2018-12-23T04:31:30.006Z,9.87
2018-12-23T04:34:14.594Z,10.90
2018-12-23T04:36:59.400Z,9.13
2018-12-23T04:39:42.628Z,9.83
2018-12-23T04:42:34.817Z,9.97
2018-12-23T04:45:26.986Z,10.27
2018-12-23T04:48:19.185Z,9.50
2018-12-23T04:51:11.360Z,10.20
2018-12-23T04:54:03.994Z,9.00
2018-12-23T04:56:56.164Z,9.53
2018-12-23T04:59:48.360Z,9.97
2018-12-23T05:02:40.536Z,9.07
2018-12-23T05:05:32.719Z,10.30
2018-12-23T05:08:24.919Z,9.67
2018-12-23T05:11:17.106Z,10.33
2018-12-23T05:14:09.296Z,9.13
2018-12-23T05:17:01.459Z,9.73
2018-12-23T05:19:46.690Z,9.00
2018-12-23T05:22:31.420Z,10.17
2018-12-23T05:25:16.036Z,9.40
2018-12-23T05:28:00.886Z,9.20
2018-12-23T05:30:45.789Z,9.67
2018-12-23T05:33:30.595Z,9.63
2018-12-23T05:36:15.340Z,9.33
2018-12-23T05:39:00.065Z,9.80
2018-12-23T05:41:44.643Z,9.63
2018-12-23T05:44:29.690Z,8.43
2018-12-23T05:47:14.340Z,8.83
2018-12-23T05:49:59.493Z,8.57
2018-12-23T05:52:44.055Z,7.50
2018-12-23T05:55:28.860Z,8.67
2018-12-23T05:58:13.480Z,8.07
2018-12-23T06:00:58.266Z,8.40
2018-12-23T06:03:42.803Z,8.37
2018-12-23T06:06:27.460Z,8.07
2018-12-23T06:09:12.040Z,8.73
2018-12-23T06:11:56.728Z,7.67
2018-12-23T06:14:40.008Z,8.70
2018-12-23T06:17:32.201Z,8.40
2018-12-23T06:20:16.788Z,7.93
2018-12-23T06:23:01.685Z,8.53
2018-12-23T06:25:44.961Z,8.03
2018-12-23T06:28:37.140Z,7.97
2018-12-23T06:31:29.335Z,8.50
2018-12-23T06:34:21.511Z,7.93
2018-12-23T06:37:13.717Z,7.97
2018-12-23T06:40:05.914Z,7.47
2018-12-23T06:42:58.088Z,8.20
2018-12-23T06:45:50.264Z,8.07
2018-12-23T06:48:42.452Z,8.50
2018-12-23T06:51:34.912Z,7.83
2018-12-23T06:54:27.124Z,8.70
2018-12-23T06:57:19.327Z,7.50
2018-12-23T07:00:11.504Z,6.70
2018-12-23T07:03:03.697Z,8.07
2018-12-23T07:05:55.872Z,8.03
2018-12-23T07:08:48.064Z,7.70
2018-12-23T07:11:40.242Z,7.27
2018-12-23T07:14:32.431Z,7.00
2018-12-23T07:17:24.607Z,7.17
2018-12-23T07:20:09.341Z,6.83
2018-12-23T07:22:54.212Z,7.23
2018-12-23T07:25:38.812Z,7.00
2018-12-23T07:28:24.134Z,7.00
2018-12-23T07:31:09.187Z,7.10
2018-12-23T07:33:54.297Z,6.30
2018-12-23T07:36:39.261Z,7.40
2018-12-23T07:39:23.736Z,6.70
2018-12-23T07:42:08.452Z,6.47
2018-12-23T07:44:53.047Z,6.33
2018-12-23T07:47:37.683Z,6.10
2018-12-23T07:50:22.517Z,5.67
2018-12-23T07:53:07.240Z,6.20
2018-12-23T07:55:51.760Z,6.10
2018-12-23T07:58:36.315Z,6.27
2018-12-23T08:01:20.955Z,5.90
2018-12-23T08:04:05.668Z,5.63
2018-12-23T08:06:50.755Z,5.37
2018-12-23T08:09:35.739Z,4.83
2018-12-23T08:12:20.556Z,4.97
2018-12-23T08:15:05.128Z,5.20
2018-12-23T08:17:50.162Z,4.50
2018-12-23T08:20:34.814Z,5.27
2018-12-23T08:23:20.905Z,5.63
2018-12-23T08:26:05.708Z,4.77
2018-12-23T08:28:50.322Z,4.80
2018-12-23T08:31:35.426Z,5.07
2018-12-23T08:34:20.282Z,4.30
2018-12-23T08:37:04.953Z,4.60
2018-12-23T08:39:50.092Z,4.27
2018-12-23T08:42:34.624Z,3.83
2018-12-23T08:45:19.354Z,4.47
2018-12-23T08:48:04.154Z,4.40
2018-12-23T08:50:48.940Z,4.83
2018-12-23T08:53:33.956Z,4.43
2018-12-23T08:56:18.545Z,4.33
2018-12-23T08:59:03.480Z,4.50
2018-12-23T09:01:48.865Z,4.43
2018-12-23T09:04:33.822Z,4.30
2018-12-23T09:07:19.531Z,4.63
2018-12-23T09:10:03.995Z,5.47
2018-12-23T09:12:49.219Z,4.17
2018-12-23T09:15:34.039Z,4.27
2018-12-23T09:18:19.685Z,4.20
2018-12-23T09:21:05.124Z,4.23
2018-12-23T09:23:50.196Z,4.37
2018-12-23T09:26:35.237Z,4.17
2018-12-23T09:29:20.205Z,4.20
2018-12-23T09:32:05.203Z,4.10
2018-12-23T09:34:49.771Z,3.90
2018-12-23T09:37:34.386Z,3.83
2018-12-23T09:40:19.344Z,3.90
2018-12-23T09:43:04.172Z,3.40
2018-12-23T09:45:48.836Z,3.87
2018-12-23T09:48:33.900Z,4.57
2018-12-23T09:51:19.026Z,4.30
2018-12-23T09:54:03.699Z,4.03
2018-12-23T09:56:48.676Z,4.13
2018-12-23T09:59:33.413Z,3.73
2018-12-23T10:02:18.816Z,3.77
2018-12-23T10:05:03.867Z,4.10
2018-12-23T10:07:48.445Z,3.67
2018-12-23T10:10:33.092Z,3.70
2018-12-23T10:13:17.981Z,4.07
2018-12-23T10:16:02.916Z,3.80
2018-12-23T10:18:47.371Z,4.13
2018-12-23T10:21:32.384Z,4.50
2018-12-23T10:24:17.094Z,4.40
2018-12-23T10:27:01.858Z,4.27
2018-12-23T10:29:46.642Z,4.00
2018-12-23T10:32:31.216Z,4.90
2018-12-23T10:35:16.271Z,4.40
2018-12-23T10:38:00.957Z,4.40
2018-12-23T10:40:46.140Z,4.30
2018-12-23T10:43:30.787Z,4.40
2018-12-23T10:46:15.892Z,4.00
2018-12-23T10:49:00.528Z,4.67
2018-12-23T10:51:45.381Z,4.50
2018-12-23T10:54:30.438Z,3.77
2018-12-23T10:57:15.253Z,4.20
2018-12-23T11:00:00.945Z,4.30
2018-12-23T11:02:46.320Z,3.97
2018-12-23T11:05:31.330Z,3.90
2018-12-23T11:08:16.169Z,4.40
2018-12-23T11:11:01.091Z,4.90
2018-12-23T11:13:46.152Z,4.57
2018-12-23T11:16:31.388Z,4.43
2018-12-23T11:19:16.186Z,5.27
2018-12-23T11:22:01.400Z,4.97
2018-12-23T11:24:44.677Z,4.53
2018-12-23T11:27:36.847Z,5.10
2018-12-23T11:30:29.064Z,7.53
2018-12-23T11:33:21.260Z,6.50
2018-12-23T11:36:13.434Z,5.70
2018-12-23T11:39:06.437Z,5.37
2018-12-23T11:41:58.620Z,4.57
2018-12-23T11:44:50.807Z,5.50
2018-12-23T11:47:42.988Z,5.53
2018-12-23T11:50:35.168Z,4.73
2018-12-23T11:53:27.635Z,6.00
2018-12-23T11:56:19.817Z,7.87
2018-12-23T11:59:12.027Z,6.03
2018-12-23T12:02:04.683Z,6.10
2018-12-23T12:04:57.290Z,5.90
2018-12-23T12:07:49.467Z,11.67
2018-12-23T12:10:41.681Z,7.90
2018-12-23T12:13:33.864Z,7.57
2018-12-23T12:16:26.054Z,5.43
2018-12-23T12:19:18.264Z,5.57
2018-12-23T12:22:10.735Z,4.77
2018-12-23T12:25:02.946Z,4.63
2018-12-23T12:27:55.408Z,5.00
2018-12-23T12:30:47.606Z,5.10
2018-12-23T12:33:39.784Z,4.80
2018-12-23T12:36:31.981Z,4.20
2018-12-23T12:39:24.163Z,5.00
2018-12-23T12:42:16.368Z,4.77
2018-12-23T12:45:09.273Z,4.60
2018-12-23T12:48:01.447Z,4.00
2018-12-23T12:50:53.625Z,5.00
2018-12-23T12:53:46.083Z,4.70
2018-12-23T12:56:38.278Z,4.80
2018-12-23T12:59:30.455Z,6.93
2018-12-23T13:02:22.648Z,5.67
2018-12-23T13:05:14.833Z,5.57
2018-12-23T13:08:07.019Z,4.40
2018-12-23T13:10:59.231Z,3.50
2018-12-23T13:13:51.415Z,4.00
2018-12-23T13:16:43.615Z,4.17
2018-12-23T13:19:35.819Z,4.80
2018-12-23T13:22:28.012Z,5.27
2018-12-23T13:25:20.547Z,5.50
2018-12-23T13:28:12.737Z,4.80
2018-12-23T13:31:04.923Z,4.67
2018-12-23T13:33:57.120Z,4.50
2018-12-23T13:36:49.304Z,4.70
2018-12-23T13:39:41.504Z,5.10
2018-12-23T13:42:52.882Z,5.67
2018-12-23T13:46:04.252Z,5.73
2018-12-23T13:49:15.631Z,5.83
2018-12-23T13:52:27.025Z,6.17
2018-12-23T13:55:38.414Z,4.60
2018-12-23T13:58:49.785Z,4.60
2018-12-23T14:02:01.150Z,4.40
2018-12-23T14:05:12.564Z,4.63
2018-12-23T14:08:23.949Z,4.23
2018-12-23T14:11:35.337Z,5.10
2018-12-23T14:14:27.802Z,4.80
2018-12-23T14:17:19.987Z,5.27
2018-12-23T14:20:05.020Z,4.97
2018-12-23T14:22:50.017Z,4.30
2018-12-23T14:25:34.804Z,4.80
2018-12-23T14:28:18.129Z,4.50
2018-12-23T14:31:10.323Z,5.10
2018-12-23T14:34:02.514Z,4.03
2018-12-23T14:36:54.687Z,6.13
2018-12-23T14:39:46.875Z,4.87
2018-12-23T14:42:39.071Z,4.80
2018-12-23T14:45:31.254Z,5.97
2018-12-23T14:48:23.428Z,5.63
2018-12-23T14:51:15.620Z,5.30
2018-12-23T14:54:07.801Z,4.60
2018-12-23T14:57:00.002Z,5.80
2018-12-23T14:59:52.181Z,5.00
2018-12-23T15:02:44.360Z,5.03
2018-12-23T15:05:36.800Z,4.87
2018-12-23T15:08:28.980Z,5.90
2018-12-23T15:11:21.176Z,5.33
2018-12-23T15:14:13.347Z,4.93
2018-12-23T15:17:05.544Z,5.17
2018-12-23T15:19:48.831Z,5.53
2018-12-23T15:22:41.316Z,5.20
2018-12-23T15:25:33.524Z,5.07
2018-12-23T15:28:25.689Z,5.47
2018-12-23T15:31:17.884Z,5.53
2018-12-23T15:34:10.064Z,5.57
2018-12-23T15:37:02.258Z,5.90
2018-12-23T15:39:54.456Z,5.87
2018-12-23T15:42:46.670Z,6.87
2018-12-23T15:45:38.850Z,6.70
2018-12-23T15:48:31.047Z,8.30
2018-12-23T15:51:23.238Z,6.57
2018-12-23T15:54:15.896Z,6.30
2018-12-23T15:57:08.087Z,6.23
2018-12-23T16:00:00.275Z,6.03
2018-12-23T16:02:52.483Z,6.07
2018-12-23T16:05:44.664Z,6.57
2018-12-23T16:08:36.856Z,5.33
2018-12-23T16:11:29.032Z,5.87
2018-12-23T16:14:21.233Z,6.90
2018-12-23T16:17:13.425Z,6.13
2018-12-23T16:19:58.325Z,7.10
2018-12-23T16:22:43.499Z,6.50
2018-12-23T16:25:28.688Z,6.07
2018-12-23T16:28:13.786Z,6.07
2018-12-23T16:30:58.829Z,6.30
2018-12-23T16:33:44.009Z,7.50
2018-12-23T16:36:28.612Z,6.50
2018-12-23T16:39:13.581Z,6.93
2018-12-23T16:41:58.219Z,6.73
2018-12-23T16:44:43.270Z,6.67
2018-12-23T16:47:28.372Z,6.20
2018-12-23T16:50:13.080Z,7.40
2018-12-23T16:55:45.582Z,6.83
2018-12-23T16:58:30.708Z,6.60
2018-12-23T17:01:15.860Z,6.30
2018-12-23T17:04:00.755Z,6.43
2018-12-23T17:06:45.540Z,6.57
2018-12-23T17:09:30.089Z,6.37
2018-12-23T17:12:14.840Z,6.80
2018-12-23T17:14:59.665Z,7.83
2018-12-23T17:17:44.401Z,8.17
2018-12-23T17:20:29.334Z,7.67
2018-12-23T17:23:14.170Z,7.93
2018-12-23T17:25:58.885Z,9.13
2018-12-23T17:28:43.364Z,8.60
2018-12-23T17:31:16.400Z,8.83
2018-12-23T17:34:08.584Z,9.97
2018-12-23T17:37:00.789Z,10.63
2018-12-23T17:39:52.964Z,11.37
2018-12-23T17:42:45.160Z,10.57
2018-12-23T17:45:37.343Z,13.10
2018-12-23T17:51:41.043Z,11.33
2018-12-23T17:54:33.235Z,12.10
2018-12-23T17:57:25.731Z,11.67
2018-12-23T18:00:17.952Z,11.57
2018-12-23T18:03:10.156Z,12.23
2018-12-23T18:06:02.363Z,13.37
2018-12-23T18:08:54.547Z,14.30
2018-12-23T18:11:46.716Z,15.47
2018-12-23T18:14:38.908Z,13.40
2018-12-23T18:17:31.118Z,15.63
2018-12-23T18:20:15.612Z,15.33
2018-12-23T18:23:00.148Z,15.50
2018-12-23T18:25:45.360Z,14.23
2018-12-23T18:28:30.012Z,15.17
2018-12-23T18:31:15.116Z,15.23
2018-12-23T18:34:00.022Z,15.93
2018-12-23T18:36:44.786Z,16.70
2018-12-23T18:39:29.459Z,14.77
2018-12-23T18:42:14.283Z,14.17
2018-12-23T18:44:59.204Z,14.00
2018-12-23T18:47:43.980Z,13.83
2018-12-23T18:50:29.157Z,13.70
2018-12-23T18:53:14.697Z,12.90
2018-12-23T18:55:59.941Z,15.33
2018-12-23T18:58:45.080Z,16.90
2018-12-23T19:01:29.582Z,17.90
2018-12-23T19:04:14.300Z,20.30
2018-12-23T19:06:59.197Z,19.10
2018-12-23T19:09:44.212Z,17.10
2018-12-23T19:12:28.749Z,15.13
2018-12-23T19:15:13.205Z,15.83
2018-12-23T19:17:58.225Z,16.63
2018-12-23T19:20:43.350Z,15.17
2018-12-23T19:23:28.052Z,15.07
2018-12-23T19:26:12.605Z,15.73
2018-12-23T19:28:57.341Z,15.07
2018-12-23T19:31:41.889Z,15.97
2018-12-23T19:34:33.848Z,16.13
2018-12-23T19:40:01.443Z,16.40
2018-12-23T19:42:46.328Z,15.20
2018-12-23T19:45:31.103Z,14.40
2018-12-23T19:48:16.254Z,13.93
2018-12-23T19:51:01.020Z,13.13
2018-12-23T19:53:46.061Z,14.13
2018-12-23T19:56:57.728Z,13.30
2018-12-23T20:00:09.133Z,12.47
2018-12-23T20:03:20.492Z,13.37
2018-12-23T20:06:31.876Z,12.83
2018-12-23T20:09:43.255Z,13.00
2018-12-23T20:12:54.616Z,12.83
2018-12-23T20:16:05.987Z,14.07
2018-12-23T20:19:17.351Z,10.67
2018-12-23T20:22:02.064Z,9.77
2018-12-23T20:24:46.585Z,9.60
2018-12-23T20:27:31.507Z,9.80
2018-12-23T20:30:16.977Z,8.50
2018-12-23T20:33:01.832Z,7.77
2018-12-23T20:35:46.736Z,6.80
2018-12-23T20:38:31.616Z,7.23
2018-12-23T20:41:16.745Z,7.60
2018-12-23T20:44:01.681Z,7.73
2018-12-23T20:46:46.287Z,6.80
2018-12-23T20:52:18.442Z,6.80
2018-12-23T20:57:50.502Z,6.67
2018-12-23T21:00:35.224Z,7.23
2018-12-23T21:03:20.920Z,3.83
2018-12-23T21:06:05.418Z,6.07
2018-12-23T21:08:51.830Z,8.90
2018-12-23T21:11:37.002Z,12.93
2018-12-23T21:14:21.801Z,11.33
2018-12-23T21:17:06.630Z,8.53
2018-12-23T21:19:51.104Z,5.70
2018-12-23T21:22:35.558Z,6.20
2018-12-23T21:25:20.506Z,6.23
2018-12-23T21:28:05.479Z,6.93
2018-12-23T21:30:50.153Z,8.83
2018-12-23T21:33:35.826Z,9.50
2018-12-23T21:36:26.867Z,8.90
2018-12-23T21:39:38.250Z,8.40
2018-12-23T21:42:49.600Z,7.33
2018-12-23T21:46:00.979Z,9.38
2018-12-23T21:49:12.356Z,8.80
2018-12-23T21:52:23.782Z,9.13
2018-12-23T21:55:35.173Z,7.73
2018-12-23T21:58:42.228Z,9.13
2018-12-23T22:01:53.610Z,9.30
2018-12-23T22:05:04.988Z,11.10
2018-12-23T22:08:16.351Z,8.40
2018-12-23T22:11:33.082Z,9.30
2018-12-23T22:14:21.632Z,8.60
2018-12-23T22:17:13.845Z,5.53
2018-12-23T22:19:57.152Z,4.10
2018-12-23T22:22:49.344Z,4.93
2018-12-23T22:25:41.535Z,4.57
2018-12-23T22:28:33.724Z,4.57
2018-12-23T22:31:25.901Z,4.67
2018-12-23T22:34:18.077Z,4.60
2018-12-23T22:37:10.260Z,4.03
2018-12-23T22:40:02.439Z,3.70
2018-12-23T22:42:54.647Z,3.27
2018-12-23T22:45:46.844Z,3.30
2018-12-23T22:48:39.154Z,3.27
2018-12-23T22:51:31.364Z,3.40
2018-12-23T22:54:23.804Z,3.60
2018-12-23T22:57:16.028Z,3.30
2018-12-23T23:00:08.207Z,3.37
2018-12-23T23:02:41.191Z,2.90
2018-12-23T23:05:33.375Z,2.80
2018-12-23T23:08:25.556Z,3.10
2018-12-23T23:11:17.795Z,3.27
2018-12-23T23:14:10.009Z,4.17
2018-12-23T23:17:02.729Z,4.47
2018-12-23T23:19:55.375Z,5.57
2018-12-23T23:22:47.570Z,5.03
2018-12-23T23:25:39.740Z,5.20
2018-12-23T23:28:31.935Z,6.67
2018-12-23T23:31:24.111Z,7.07
2018-12-23T23:34:16.286Z,7.30
2018-12-23T23:37:08.468Z,8.97
2018-12-23T23:40:00.660Z,9.20
2018-12-23T23:42:52.828Z,9.97
2018-12-23T23:45:45.024Z,10.37
2018-12-23T23:48:37.197Z,9.77
2018-12-23T23:51:29.390Z,11.13
2018-12-23T23:54:21.829Z,11.17
2018-12-23T23:57:14.246Z,9.70
